createdAt,value
2018-12-29T00:00:55.523Z,32.63
2018-12-29T00:03:24.967Z,34.43
2018-12-29T00:05:54.400Z,38.83
2018-12-29T00:08:23.809Z,38.87
2018-12-29T00:10:53.503Z,41.47
2018-12-29T00:13:23.095Z,41.63
2018-12-29T00:15:52.650Z,43.30
2018-12-29T00:18:22.205Z,41.57
2018-12-29T00:20:51.695Z,39.07
2018-12-29T00:23:21.288Z,37.10
2018-12-29T00:25:50.727Z,38.23
2018-12-29T00:28:20.051Z,41.00
2018-12-29T00:30:50.455Z,39.63
2018-12-29T00:33:19.871Z,38.83
2018-12-29T00:35:49.322Z,35.87
2018-12-29T00:38:18.862Z,33.60
2018-12-29T00:40:48.400Z,34.33
2018-12-29T00:43:17.924Z,31.97
2018-12-29T00:45:47.486Z,28.37
2018-12-29T00:48:17.114Z,31.13
2018-12-29T00:50:46.661Z,33.37
2018-12-29T00:53:16.090Z,32.93
2018-12-29T00:55:45.510Z,34.00
2018-12-29T00:58:14.896Z,34.07
2018-12-29T01:00:44.288Z,30.23
2018-12-29T01:03:13.592Z,33.10
2018-12-29T01:05:43.082Z,30.50
2018-12-29T01:08:12.607Z,27.67
2018-12-29T01:10:41.922Z,27.30
2018-12-29T01:13:11.398Z,24.67
2018-12-29T01:15:40.846Z,22.90
2018-12-29T01:18:10.184Z,27.00
2018-12-29T01:20:39.576Z,27.57
2018-12-29T01:23:09.088Z,27.60
2018-12-29T01:25:38.631Z,29.13
2018-12-29T01:28:08.022Z,31.57
2018-12-29T01:30:37.966Z,32.10
2018-12-29T01:33:07.511Z,31.33
2018-12-29T01:35:36.831Z,31.87
2018-12-29T01:38:06.229Z,31.10
2018-12-29T01:40:37.510Z,29.30
2018-12-29T01:43:06.839Z,30.57
2018-12-29T01:45:36.160Z,32.63
2018-12-29T01:48:05.625Z,29.77
2018-12-29T01:50:35.134Z,29.70
2018-12-29T01:53:04.563Z,27.67
2018-12-29T01:55:34.079Z,28.80
2018-12-29T01:58:03.533Z,29.97
2018-12-29T02:00:32.993Z,27.27
2018-12-29T02:03:02.381Z,24.97
2018-12-29T02:05:31.772Z,24.40
2018-12-29T02:08:01.224Z,21.63
2018-12-29T02:10:30.630Z,20.67
2018-12-29T02:13:00.156Z,19.93
2018-12-29T02:15:29.572Z,21.10
2018-12-29T02:17:59.094Z,19.67
2018-12-29T02:20:28.973Z,15.57
2018-12-29T02:22:58.359Z,15.97
2018-12-29T02:25:27.784Z,15.67
2018-12-29T02:27:57.355Z,15.80
2018-12-29T02:30:26.691Z,12.97
2018-12-29T02:32:56.176Z,13.80
2018-12-29T02:35:25.668Z,12.77
2018-12-29T02:37:55.125Z,10.30
2018-12-29T02:40:24.508Z,9.00
2018-12-29T02:42:53.976Z,9.27
2018-12-29T02:45:23.367Z,10.00
2018-12-29T02:47:52.985Z,7.93
2018-12-29T02:50:22.397Z,10.33
2018-12-29T02:52:51.795Z,13.47
2018-12-29T02:55:21.233Z,14.97
2018-12-29T02:57:50.706Z,15.87
2018-12-29T03:00:20.094Z,15.63
2018-12-29T03:02:49.559Z,16.03
2018-12-29T03:05:18.963Z,14.70
2018-12-29T03:07:48.413Z,15.50
2018-12-29T03:10:17.840Z,15.77
2018-12-29T03:12:47.186Z,16.87
2018-12-29T03:15:16.759Z,16.63
2018-12-29T03:17:46.081Z,15.47
2018-12-29T03:20:15.575Z,15.47
2018-12-29T03:22:45.083Z,15.97
2018-12-29T03:25:14.535Z,13.73
2018-12-29T03:27:44.071Z,11.50
2018-12-29T03:30:13.740Z,10.17
2018-12-29T03:32:43.149Z,11.67
2018-12-29T03:35:12.767Z,11.17
2018-12-29T03:37:42.152Z,9.47
2018-12-29T03:40:11.488Z,7.73
2018-12-29T03:42:40.979Z,10.00
2018-12-29T03:45:10.320Z,7.07
2018-12-29T03:47:39.750Z,9.30
2018-12-29T03:50:09.058Z,7.43
2018-12-29T03:52:38.485Z,6.60
2018-12-29T03:55:07.917Z,8.33
2018-12-29T03:57:37.320Z,7.17
2018-12-29T04:00:07.848Z,6.20
2018-12-29T04:02:37.398Z,5.93
2018-12-29T04:05:06.933Z,7.23
2018-12-29T04:07:36.397Z,7.20
2018-12-29T04:10:10.120Z,6.00
2018-12-29T04:12:41.460Z,5.97
2018-12-29T04:15:10.906Z,6.00
2018-12-29T04:17:40.296Z,6.67
2018-12-29T04:20:09.726Z,5.30
2018-12-29T04:22:39.288Z,6.00
2018-12-29T04:25:09.025Z,5.10
2018-12-29T04:27:38.335Z,4.97
2018-12-29T04:30:07.775Z,5.97
2018-12-29T04:32:37.233Z,4.87
2018-12-29T04:35:06.774Z,5.13
2018-12-29T04:37:36.109Z,4.97
2018-12-29T04:40:05.824Z,7.43
2018-12-29T04:42:35.367Z,4.57
2018-12-29T04:45:05.021Z,5.03
2018-12-29T04:47:34.417Z,6.63
2018-12-29T04:50:04.180Z,5.23
2018-12-29T04:52:33.660Z,5.93
2018-12-29T04:55:03.039Z,5.53
2018-12-29T04:57:32.519Z,5.73
2018-12-29T05:00:01.927Z,5.93
2018-12-29T05:02:31.398Z,5.17
2018-12-29T05:05:00.859Z,6.40
2018-12-29T05:07:30.171Z,5.17
2018-12-29T05:09:59.571Z,5.20
2018-12-29T05:12:28.825Z,5.30
2018-12-29T05:14:58.227Z,6.47
2018-12-29T05:17:27.745Z,6.63
2018-12-29T05:19:57.183Z,6.73
2018-12-29T05:22:26.555Z,6.53
2018-12-29T05:24:55.891Z,9.13
2018-12-29T05:27:25.485Z,9.17
2018-12-29T05:29:54.798Z,9.70
2018-12-29T05:32:24.137Z,9.00
2018-12-29T05:34:53.790Z,9.20
2018-12-29T05:37:23.294Z,11.67
2018-12-29T05:39:52.781Z,9.13
2018-12-29T05:42:22.280Z,10.07
2018-12-29T05:44:51.729Z,11.10
2018-12-29T05:47:21.160Z,11.37
2018-12-29T05:49:50.530Z,11.63
2018-12-29T05:52:19.967Z,10.43
2018-12-29T05:54:49.369Z,10.87
2018-12-29T05:57:18.775Z,9.50
2018-12-29T05:59:48.249Z,9.97
2018-12-29T06:02:17.779Z,9.97
2018-12-29T06:04:47.201Z,10.57
2018-12-29T06:07:16.658Z,12.63
2018-12-29T06:09:46.332Z,9.37
2018-12-29T06:12:15.716Z,11.97
2018-12-29T06:14:45.127Z,11.00
2018-12-29T06:17:14.435Z,12.57
2018-12-29T06:19:43.859Z,13.83
2018-12-29T06:22:13.255Z,20.20
2018-12-29T06:24:43.029Z,17.73
2018-12-29T06:27:12.451Z,23.83
2018-12-29T06:29:41.777Z,23.67
2018-12-29T06:32:11.256Z,29.93
2018-12-29T06:34:40.512Z,35.37
2018-12-29T06:37:09.965Z,33.63
2018-12-29T06:39:39.414Z,29.40
2018-12-29T06:42:08.693Z,28.87
2018-12-29T06:44:38.150Z,23.40
2018-12-29T06:47:07.608Z,24.80
2018-12-29T06:49:36.880Z,24.70
2018-12-29T06:52:06.151Z,24.40
2018-12-29T06:54:35.647Z,24.73
2018-12-29T06:57:04.938Z,23.47
2018-12-29T06:59:34.369Z,28.00
2018-12-29T07:02:03.795Z,26.03
2018-12-29T07:04:33.129Z,27.77
2018-12-29T07:07:02.579Z,24.63
2018-12-29T07:09:31.925Z,30.60
2018-12-29T07:12:01.285Z,32.60
2018-12-29T07:14:31.059Z,34.00
2018-12-29T07:17:00.610Z,34.67
2018-12-29T07:19:29.997Z,34.30
2018-12-29T07:21:59.427Z,28.43
2018-12-29T07:24:28.800Z,26.57
2018-12-29T07:26:58.136Z,21.07
2018-12-29T07:29:27.561Z,24.17
2018-12-29T07:31:57.087Z,22.20
2018-12-29T07:34:26.383Z,22.03
2018-12-29T07:36:55.955Z,21.53
2018-12-29T07:39:25.460Z,26.47
2018-12-29T07:41:54.829Z,28.40
2018-12-29T07:44:24.225Z,35.03
2018-12-29T07:46:53.762Z,31.23
2018-12-29T07:49:23.379Z,30.63
2018-12-29T07:51:52.668Z,25.57
2018-12-29T07:54:22.043Z,18.60
2018-12-29T07:56:51.435Z,18.03
2018-12-29T07:59:21.004Z,18.03
2018-12-29T08:01:50.322Z,20.93
2018-12-29T08:04:19.769Z,26.00
2018-12-29T08:06:49.268Z,22.90
2018-12-29T08:09:18.715Z,21.00
2018-12-29T08:11:47.945Z,17.40
2018-12-29T08:14:17.302Z,19.97
2018-12-29T08:16:46.685Z,19.83
2018-12-29T08:19:15.977Z,19.87
2018-12-29T08:21:45.394Z,19.07
2018-12-29T08:24:14.801Z,24.33
2018-12-29T08:26:44.172Z,34.83
2018-12-29T08:29:13.451Z,32.33
2018-12-29T08:31:43.003Z,31.17
2018-12-29T08:34:12.290Z,28.87
2018-12-29T08:36:41.802Z,29.93
2018-12-29T08:39:11.161Z,29.23
2018-12-29T08:41:40.520Z,30.30
2018-12-29T08:44:09.905Z,32.00
2018-12-29T08:46:39.399Z,33.30
2018-12-29T08:49:08.599Z,31.47
2018-12-29T08:51:37.959Z,32.57
2018-12-29T08:54:07.453Z,27.87
2018-12-29T08:56:37.260Z,26.33
2018-12-29T08:59:06.894Z,21.10
2018-12-29T09:01:36.244Z,19.10
2018-12-29T09:04:05.695Z,20.77
2018-12-29T09:06:35.055Z,20.80
2018-12-29T09:09:06.242Z,19.10
2018-12-29T09:11:35.545Z,22.00
2018-12-29T09:14:04.875Z,21.40
2018-12-29T09:16:34.205Z,24.20
2018-12-29T09:19:03.477Z,25.13
2018-12-29T09:25:05.390Z,22.87
2018-12-29T09:27:34.746Z,22.30
2018-12-29T09:30:04.503Z,23.10
2018-12-29T09:32:33.807Z,25.33
2018-12-29T09:35:03.359Z,21.60
2018-12-29T09:37:35.323Z,23.93
2018-12-29T09:40:04.757Z,22.23
2018-12-29T09:42:34.184Z,26.17
2018-12-29T09:45:03.654Z,22.33
2018-12-29T09:47:32.961Z,22.73
2018-12-29T09:50:02.413Z,22.43
2018-12-29T09:52:31.840Z,20.77
2018-12-29T09:55:01.381Z,24.60
2018-12-29T09:57:33.153Z,22.27
2018-12-29T10:00:02.247Z,22.90
2018-12-29T10:02:31.269Z,22.73
2018-12-29T10:05:00.252Z,20.17
2018-12-29T10:07:29.166Z,23.37
2018-12-29T10:09:58.101Z,39.00
2018-12-29T10:12:27.318Z,50.20
2018-12-29T10:14:56.317Z,72.07
2018-12-29T10:17:27.009Z,59.00
2018-12-29T10:19:55.867Z,48.13
2018-12-29T10:22:24.796Z,28.33
2018-12-29T10:24:53.731Z,22.23
2018-12-29T10:27:22.591Z,20.83
2018-12-29T10:29:51.602Z,20.43
2018-12-29T10:32:20.466Z,23.53
2018-12-29T10:34:49.436Z,28.77
2018-12-29T10:37:18.472Z,26.50
2018-12-29T10:39:47.478Z,28.73
2018-12-29T10:42:16.409Z,26.23
2018-12-29T10:44:45.342Z,29.03
2018-12-29T10:47:14.306Z,25.30
2018-12-29T10:49:43.211Z,24.23
2018-12-29T10:52:12.161Z,22.23
2018-12-29T10:54:41.127Z,24.23
2018-12-29T10:57:10.233Z,25.53
2018-12-29T10:59:39.176Z,29.53
2018-12-29T11:02:08.057Z,28.87
2018-12-29T11:04:37.263Z,30.13
2018-12-29T11:07:06.272Z,24.83
2018-12-29T11:09:35.137Z,29.83
2018-12-29T11:12:04.161Z,35.80
2018-12-29T11:14:33.050Z,19.50
2018-12-29T11:17:01.967Z,23.40
2018-12-29T11:19:31.032Z,20.13
2018-12-29T11:21:59.924Z,20.13
2018-12-29T11:24:29.304Z,24.33
2018-12-29T11:26:58.763Z,22.90
2018-12-29T11:29:28.109Z,20.10
2018-12-29T11:31:57.480Z,18.87
2018-12-29T11:34:26.939Z,18.50
2018-12-29T11:36:56.306Z,19.63
2018-12-29T11:39:25.897Z,31.93
2018-12-29T11:41:55.381Z,21.60
2018-12-29T11:44:24.896Z,38.80
2018-12-29T11:46:54.463Z,23.53
2018-12-29T11:49:23.952Z,29.17
2018-12-29T11:51:53.462Z,16.97
2018-12-29T11:54:23.025Z,19.83
2018-12-29T11:56:52.848Z,20.40
2018-12-29T11:59:22.212Z,32.73
2018-12-29T12:01:51.629Z,23.17
2018-12-29T12:04:21.162Z,25.93
2018-12-29T12:06:50.595Z,23.83
2018-12-29T12:09:19.979Z,25.57
2018-12-29T12:11:49.592Z,27.67
2018-12-29T12:14:19.063Z,33.47
2018-12-29T12:16:48.392Z,26.93
2018-12-29T12:19:17.845Z,26.03
2018-12-29T12:21:47.270Z,28.90
2018-12-29T12:24:16.703Z,28.83
2018-12-29T12:26:45.687Z,28.77
2018-12-29T12:29:15.115Z,28.83
2018-12-29T12:31:44.806Z,30.60
2018-12-29T12:34:14.219Z,27.93
2018-12-29T12:36:44.255Z,28.90
2018-12-29T12:39:13.600Z,36.43
2018-12-29T12:41:42.913Z,32.80
2018-12-29T12:44:13.643Z,26.83
2018-12-29T12:46:43.319Z,33.30
2018-12-29T12:49:13.283Z,40.50
2018-12-29T12:51:42.766Z,44.73
2018-12-29T12:54:12.575Z,37.87
2018-12-29T12:56:42.350Z,33.10
2018-12-29T12:59:11.997Z,34.00
2018-12-29T13:01:41.602Z,36.27
2018-12-29T13:04:11.081Z,31.77
2018-12-29T13:06:40.568Z,34.57
2018-12-29T13:09:10.169Z,48.70
2018-12-29T13:11:39.548Z,36.60
2018-12-29T13:14:09.107Z,35.97
2018-12-29T13:16:38.542Z,40.67
2018-12-29T13:19:08.094Z,39.57
2018-12-29T13:21:37.755Z,39.43
2018-12-29T13:24:07.210Z,40.87
2018-12-29T13:26:36.635Z,40.97
2018-12-29T13:29:06.458Z,43.13
2018-12-29T13:31:35.967Z,48.47
2018-12-29T13:34:05.249Z,43.63
2018-12-29T13:36:34.680Z,47.03
2018-12-29T13:39:05.556Z,40.47
2018-12-29T13:41:34.995Z,38.57
2018-12-29T13:44:04.719Z,40.80
2018-12-29T13:46:34.223Z,39.97
2018-12-29T13:49:03.712Z,42.37
2018-12-29T13:51:33.157Z,44.60
2018-12-29T13:54:02.589Z,50.87
2018-12-29T13:56:32.094Z,56.30
2018-12-29T13:59:01.543Z,52.57
2018-12-29T14:01:31.014Z,57.47
2018-12-29T14:04:00.359Z,49.23
2018-12-29T14:06:30.032Z,53.30
2018-12-29T14:08:59.488Z,50.40
2018-12-29T14:11:28.951Z,47.00
2018-12-29T14:13:58.327Z,51.77
2018-12-29T14:16:27.836Z,51.27
2018-12-29T14:18:57.418Z,57.80
2018-12-29T14:21:26.868Z,54.23
2018-12-29T14:23:56.546Z,60.63
2018-12-29T14:26:26.019Z,55.03
2018-12-29T14:28:55.360Z,58.33
2018-12-29T14:31:25.092Z,62.43
2018-12-29T14:33:54.487Z,59.83
2018-12-29T14:36:23.838Z,64.63
2018-12-29T14:38:53.275Z,66.53
2018-12-29T14:41:23.002Z,69.60
2018-12-29T14:43:55.118Z,68.07
2018-12-29T14:46:24.777Z,68.80
2018-12-29T14:48:54.193Z,73.20
2018-12-29T14:51:23.876Z,73.90
2018-12-29T14:53:53.289Z,79.47
2018-12-29T14:56:22.719Z,81.90
2018-12-29T14:58:52.065Z,87.63
2018-12-29T15:01:21.558Z,95.23
2018-12-29T15:03:51.327Z,92.97
2018-12-29T15:06:20.700Z,95.67
2018-12-29T15:08:51.965Z,102.50
2018-12-29T15:11:21.317Z,107.97
2018-12-29T15:13:51.049Z,116.67
2018-12-29T15:16:20.526Z,102.37
2018-12-29T15:18:49.963Z,100.23
2018-12-29T15:21:19.416Z,98.47
2018-12-29T15:23:48.803Z,96.40
2018-12-29T15:26:18.680Z,101.73
2018-12-29T15:28:48.128Z,99.63
2018-12-29T15:31:17.816Z,105.70
2018-12-29T15:33:47.171Z,123.23
2018-12-29T15:36:16.619Z,133.70
2018-12-29T15:38:46.322Z,124.07
2018-12-29T15:41:15.727Z,114.47
2018-12-29T15:43:45.094Z,116.27
2018-12-29T15:46:14.483Z,98.23
2018-12-29T15:48:50.954Z,97.50
2018-12-29T15:51:15.024Z,94.00
2018-12-29T15:53:44.665Z,107.67
2018-12-29T15:56:14.426Z,95.93
2018-12-29T15:58:43.824Z,81.93
2018-12-29T16:01:13.567Z,86.13
2018-12-29T16:03:43.019Z,83.03
2018-12-29T16:06:12.567Z,80.97
2018-12-29T16:08:42.111Z,80.83
2018-12-29T16:11:12.087Z,78.33
2018-12-29T16:13:42.300Z,124.17
2018-12-29T16:16:11.793Z,94.60
2018-12-29T16:18:41.220Z,71.20
2018-12-29T16:21:10.686Z,68.27
2018-12-29T16:23:40.089Z,69.80
2018-12-29T16:26:23.490Z,71.43
2018-12-29T16:28:40.710Z,70.97
2018-12-29T16:31:10.539Z,70.10
2018-12-29T16:33:41.669Z,71.60
2018-12-29T16:36:11.124Z,71.93
2018-12-29T16:38:40.700Z,65.10
2018-12-29T16:41:10.182Z,64.27
2018-12-29T16:43:39.611Z,67.13
2018-12-29T16:46:09.105Z,60.80
2018-12-29T16:48:38.476Z,72.00
2018-12-29T16:51:07.964Z,69.83
2018-12-29T16:53:37.323Z,66.47
2018-12-29T16:56:06.761Z,67.67
2018-12-29T16:58:36.135Z,61.93
2018-12-29T17:01:05.629Z,67.00
2018-12-29T17:03:35.082Z,61.40
2018-12-29T17:06:04.602Z,69.50
2018-12-29T17:08:34.193Z,65.27
2018-12-29T17:11:04.247Z,70.10
2018-12-29T17:13:33.946Z,63.33
2018-12-29T17:16:03.535Z,73.13
2018-12-29T17:18:32.978Z,82.43
2018-12-29T17:21:03.016Z,78.40
2018-12-29T17:23:32.395Z,69.57
2018-12-29T17:26:01.873Z,72.80
2018-12-29T17:28:31.482Z,82.70
2018-12-29T17:31:01.079Z,72.90
2018-12-29T17:33:30.473Z,71.97
2018-12-29T17:35:59.940Z,76.10
2018-12-29T17:38:29.493Z,69.63
2018-12-29T17:40:59.159Z,74.47
2018-12-29T17:43:28.710Z,75.97
2018-12-29T17:45:58.164Z,73.80
2018-12-29T17:48:27.714Z,85.17
2018-12-29T17:50:57.570Z,85.40
2018-12-29T17:53:27.519Z,85.37
2018-12-29T17:55:57.537Z,76.63
2018-12-29T17:58:27.027Z,80.20
2018-12-29T18:00:56.918Z,83.57
2018-12-29T18:03:26.887Z,73.77
2018-12-29T18:05:56.724Z,72.17
2018-12-29T18:08:26.685Z,65.47
2018-12-29T18:10:56.169Z,78.17
2018-12-29T18:13:25.817Z,78.73
2018-12-29T18:15:55.454Z,69.77
2018-12-29T18:18:24.886Z,71.10
2018-12-29T18:20:54.336Z,71.07
2018-12-29T18:23:24.260Z,70.67
2018-12-29T18:25:53.966Z,70.13
2018-12-29T18:28:23.353Z,63.13
2018-12-29T18:30:52.768Z,69.97
2018-12-29T18:33:22.932Z,77.73
2018-12-29T18:40:19.376Z,70.27
2018-12-29T18:42:49.284Z,69.80
2018-12-29T18:45:18.986Z,76.93
2018-12-29T18:47:48.609Z,70.47
2018-12-29T18:50:18.039Z,71.37
2018-12-29T18:52:47.737Z,69.00
2018-12-29T18:55:17.225Z,70.30
2018-12-29T18:57:47.244Z,64.43
2018-12-29T19:00:16.814Z,60.33
2018-12-29T19:02:46.409Z,70.23
2018-12-29T19:05:16.725Z,77.47
2018-12-29T19:07:46.266Z,76.33
2018-12-29T19:10:15.988Z,65.13
2018-12-29T19:12:45.651Z,71.63
2018-12-29T19:15:15.347Z,66.47
2018-12-29T19:17:45.092Z,72.70
2018-12-29T19:20:25.220Z,74.67
2018-12-29T19:22:54.081Z,67.80
2018-12-29T19:25:23.512Z,75.20
2018-12-29T19:27:53.054Z,64.33
2018-12-29T19:30:22.777Z,65.57
2018-12-29T19:32:52.705Z,63.20
2018-12-29T19:35:22.131Z,63.57
2018-12-29T19:37:51.496Z,65.67
2018-12-29T19:40:20.933Z,57.20
2018-12-29T19:42:50.532Z,61.27
2018-12-29T19:45:19.993Z,55.93
2018-12-29T19:47:55.251Z,52.67
2018-12-29T19:50:25.320Z,62.90
2018-12-29T19:52:54.864Z,62.80
2018-12-29T19:55:24.264Z,62.03
2018-12-29T19:57:54.019Z,60.37
2018-12-29T20:00:23.933Z,64.00
2018-12-29T20:02:53.684Z,59.07
2018-12-29T20:05:23.546Z,60.93
2018-12-29T20:07:53.142Z,61.93
2018-12-29T20:10:22.972Z,51.10
2018-12-29T20:12:52.436Z,55.47
2018-12-29T20:15:22.150Z,51.10
2018-12-29T20:17:53.440Z,51.07
2018-12-29T20:20:23.027Z,51.67
2018-12-29T20:22:52.504Z,55.03
2018-12-29T20:25:22.033Z,53.60
2018-12-29T20:27:52.793Z,52.10
2018-12-29T20:30:22.325Z,51.07
2018-12-29T20:32:58.940Z,52.87
2018-12-29T20:35:23.106Z,50.27
2018-12-29T20:37:52.575Z,55.80
2018-12-29T20:40:22.003Z,54.97
2018-12-29T20:42:54.577Z,55.33
2018-12-29T20:45:25.968Z,54.50
2018-12-29T20:47:55.687Z,58.43
2018-12-29T20:50:25.465Z,55.77
2018-12-29T20:52:54.919Z,58.40
2018-12-29T20:55:24.345Z,59.83
2018-12-29T20:57:53.943Z,59.63
2018-12-29T21:00:23.324Z,56.70
2018-12-29T21:02:53.107Z,62.07
2018-12-29T21:05:23.605Z,64.80
2018-12-29T21:07:53.001Z,61.47
2018-12-29T21:10:22.481Z,65.47
2018-12-29T21:12:51.886Z,66.87
2018-12-29T21:15:21.281Z,64.73
2018-12-29T21:17:50.704Z,58.63
2018-12-29T21:20:20.345Z,65.17
2018-12-29T21:22:49.892Z,62.00
2018-12-29T21:25:20.215Z,64.20
2018-12-29T21:27:50.101Z,64.70
2018-12-29T21:30:19.850Z,69.63
2018-12-29T21:32:49.564Z,65.47
2018-12-29T21:35:19.087Z,67.63
2018-12-29T21:37:48.634Z,66.37
2018-12-29T21:40:18.759Z,64.90
2018-12-29T21:42:48.315Z,64.00
2018-12-29T21:45:17.833Z,72.23
2018-12-29T21:47:47.307Z,73.43
2018-12-29T21:50:16.831Z,72.57
2018-12-29T21:52:46.319Z,70.50
2018-12-29T21:55:15.945Z,68.53
2018-12-29T21:57:45.376Z,68.57
2018-12-29T22:00:14.731Z,69.83
2018-12-29T22:02:44.425Z,69.57
2018-12-29T22:05:13.857Z,68.00
2018-12-29T22:07:43.826Z,66.23
2018-12-29T22:10:13.292Z,68.87
2018-12-29T22:12:42.818Z,68.57
2018-12-29T22:15:12.458Z,66.97
2018-12-29T22:17:41.897Z,62.73
2018-12-29T22:20:11.671Z,70.53
2018-12-29T22:22:41.105Z,67.90
2018-12-29T22:25:10.644Z,66.83
2018-12-29T22:27:40.113Z,67.73
2018-12-29T22:30:09.690Z,62.07
2018-12-29T22:32:39.550Z,67.63
2018-12-29T22:35:09.039Z,63.80
2018-12-29T22:37:38.446Z,66.07
2018-12-29T22:40:08.052Z,54.73
2018-12-29T22:42:37.496Z,64.37
2018-12-29T22:45:07.368Z,56.80
2018-12-29T22:47:36.974Z,57.37
2018-12-29T22:50:07.345Z,62.23
2018-12-29T22:52:36.790Z,63.53
2018-12-29T22:55:06.603Z,62.33
2018-12-29T22:57:36.391Z,61.90
2018-12-29T23:00:08.208Z,68.33
2018-12-29T23:02:37.749Z,75.00
2018-12-29T23:05:07.148Z,69.00
2018-12-29T23:07:36.867Z,65.20
2018-12-29T23:10:06.718Z,64.97
2018-12-29T23:12:36.247Z,63.00
2018-12-29T23:15:06.310Z,58.40
2018-12-29T23:17:35.812Z,58.20
2018-12-29T23:20:05.527Z,60.90
2018-12-29T23:22:35.514Z,64.20
2018-12-29T23:25:05.457Z,64.10
2018-12-29T23:27:35.373Z,62.70
2018-12-29T23:30:05.128Z,64.40
2018-12-29T23:32:34.521Z,64.93
2018-12-29T23:35:04.215Z,67.83
2018-12-29T23:37:33.709Z,69.90
2018-12-29T23:40:03.472Z,62.27
2018-12-29T23:42:33.010Z,63.83
2018-12-29T23:45:02.686Z,65.50
2018-12-29T23:47:32.481Z,60.10
2018-12-29T23:50:01.909Z,66.07
2018-12-29T23:52:31.364Z,60.87
2018-12-29T23:55:00.752Z,57.73
2018-12-29T23:57:30.151Z,63.27
2018-12-29T23:59:59.628Z,54.73
